createdAt,value
2019-01-14T00:00:12.282Z,100733.55
2019-01-14T00:00:49.099Z,100734.58
2019-01-14T00:01:25.905Z,100736.45
2019-01-14T00:02:02.280Z,100738.05
2019-01-14T00:02:38.982Z,100737.22
2019-01-14T00:03:15.985Z,100739.11
2019-01-14T00:03:52.711Z,100739.63
2019-01-14T00:04:29.355Z,100739.09
2019-01-14T00:05:06.936Z,100740.41
2019-01-14T00:05:43.246Z,100739.31
2019-01-14T00:06:19.991Z,100747.92
2019-01-14T00:06:56.997Z,100742.52
2019-01-14T00:07:34.123Z,100745.22
2019-01-14T00:08:10.469Z,100749.02
2019-01-14T00:08:47.416Z,100753.06
2019-01-14T00:09:31.083Z,100751.16
2019-01-14T00:10:04.510Z,100745.48
2019-01-14T00:10:41.236Z,100755.21
2019-01-14T00:11:17.986Z,100755.47
2019-01-14T00:11:55.003Z,100748.18
2019-01-14T00:12:33.009Z,100748.98
2019-01-14T00:13:09.706Z,100755.18
2019-01-14T00:13:45.916Z,100751.10
2019-01-14T00:14:22.254Z,100751.10
2019-01-14T00:14:58.784Z,100756.75
2019-01-14T00:15:35.672Z,100752.97
2019-01-14T00:16:11.955Z,100757.02
2019-01-14T00:16:49.018Z,100757.53
2019-01-14T00:17:25.856Z,100757.53
2019-01-14T00:18:02.466Z,100759.94
2019-01-14T00:18:38.728Z,100760.23
2019-01-14T00:19:15.108Z,100759.13
2019-01-14T00:19:51.422Z,100756.18
2019-01-14T00:20:28.378Z,100764.53
2019-01-14T00:21:04.990Z,100763.44
2019-01-14T00:21:41.230Z,100765.63
2019-01-14T00:22:17.544Z,100773.97
2019-01-14T00:22:53.885Z,100765.36
2019-01-14T00:23:30.541Z,100768.58
2019-01-14T00:24:07.220Z,100766.14
2019-01-14T00:24:44.227Z,100768.58
2019-01-14T00:25:20.787Z,100769.37
2019-01-14T00:26:00.218Z,100773.14
2019-01-14T00:26:37.171Z,100774.75
2019-01-14T00:27:13.680Z,100778.80
2019-01-14T00:27:51.494Z,100772.84
2019-01-14T00:28:28.497Z,100776.09
2019-01-14T00:29:04.893Z,100780.11
2019-01-14T00:29:41.126Z,100772.02
2019-01-14T00:30:19.117Z,100776.58
2019-01-14T00:30:55.734Z,100779.02
2019-01-14T00:31:32.763Z,100779.02
2019-01-14T00:32:10.382Z,100775.23
2019-01-14T00:32:47.044Z,100776.84
2019-01-14T00:33:23.591Z,100777.64
2019-01-14T00:34:00.590Z,100777.64
2019-01-14T00:34:37.533Z,100781.39
2019-01-14T00:35:13.888Z,100780.30
2019-01-14T00:35:50.929Z,100786.50
2019-01-14T00:36:27.431Z,100786.77
2019-01-14T00:37:03.819Z,100781.37
2019-01-14T00:37:40.631Z,100783.52
2019-01-14T00:38:17.560Z,100787.83
2019-01-14T00:38:53.974Z,100783.77
2019-01-14T00:39:30.173Z,100789.69
2019-01-14T00:40:08.012Z,100786.19
2019-01-14T00:40:44.349Z,100791.30
2019-01-14T00:41:21.169Z,100793.70
2019-01-14T00:41:57.251Z,100795.05
2019-01-14T00:42:34.345Z,100788.30
2019-01-14T00:43:11.383Z,100798.52
2019-01-14T00:43:48.199Z,100798.52
2019-01-14T00:44:24.795Z,100797.43
2019-01-14T00:45:01.419Z,100794.22
2019-01-14T00:45:37.762Z,100794.22
2019-01-14T00:46:14.548Z,100802.25
2019-01-14T00:46:51.199Z,100798.45
2019-01-14T00:47:28.186Z,100804.37
2019-01-14T00:48:05.084Z,100799.23
2019-01-14T00:48:41.962Z,100805.69
2019-01-14T00:49:18.717Z,100808.09
2019-01-14T00:49:55.043Z,100804.30
2019-01-14T00:50:31.715Z,100793.03
2019-01-14T00:51:08.122Z,100802.38
2019-01-14T00:51:44.442Z,100802.95
2019-01-14T00:52:21.160Z,100802.95
2019-01-14T00:52:58.265Z,100812.59
2019-01-14T00:53:35.234Z,100799.42
2019-01-14T00:54:11.583Z,100799.42
2019-01-14T00:54:47.920Z,100812.05
2019-01-14T00:55:25.043Z,100812.05
2019-01-14T00:56:01.776Z,100807.73
2019-01-14T00:56:38.587Z,100812.04
2019-01-14T00:57:14.988Z,100807.70
2019-01-14T00:57:51.929Z,100813.09
2019-01-14T00:58:28.876Z,100814.41
2019-01-14T00:59:05.266Z,100812.04
2019-01-14T00:59:42.238Z,100812.04
2019-01-14T01:00:22.746Z,100813.09
2019-01-14T01:00:59.074Z,100813.09
2019-01-14T01:01:36.100Z,100821.39
2019-01-14T01:02:12.773Z,100817.59
2019-01-14T01:02:49.859Z,100820.55
2019-01-14T01:03:26.242Z,100820.55
2019-01-14T01:04:03.047Z,100822.99
2019-01-14T01:04:39.947Z,100831.31
2019-01-14T01:05:16.450Z,100822.67
2019-01-14T01:05:53.361Z,100820.30
2019-01-14T01:06:29.638Z,100820.30
2019-01-14T01:07:06.653Z,100829.16
2019-01-14T01:07:43.322Z,100833.98
2019-01-14T01:08:20.317Z,100835.59
2019-01-14T01:08:57.252Z,100839.38
2019-01-14T01:09:33.944Z,100839.70
2019-01-14T01:10:12.022Z,100841.86
2019-01-14T01:10:49.210Z,100841.86
2019-01-14T01:11:25.577Z,100841.83
2019-01-14T01:12:03.112Z,100841.83
2019-01-14T01:12:41.250Z,100839.12
2019-01-14T01:13:18.718Z,100831.64
2019-01-14T01:13:55.651Z,100840.48
2019-01-14T01:14:32.365Z,100840.48
2019-01-14T01:15:10.374Z,100840.48
2019-01-14T01:15:47.437Z,100841.50
2019-01-14T01:16:24.206Z,100841.50
2019-01-14T01:17:01.186Z,100839.64
2019-01-14T01:17:37.870Z,100842.05
2019-01-14T01:18:14.089Z,100842.05
2019-01-14T01:18:50.732Z,100843.06
2019-01-14T01:19:27.338Z,100832.84
2019-01-14T01:20:04.334Z,100832.84
2019-01-14T01:20:41.832Z,100845.48
2019-01-14T01:21:18.579Z,100844.13
2019-01-14T01:21:55.488Z,100844.13
2019-01-14T01:22:32.650Z,100849.53
2019-01-14T01:23:08.950Z,100845.73
2019-01-14T01:23:45.889Z,100841.69
2019-01-14T01:24:22.732Z,100840.11
2019-01-14T01:24:59.860Z,100845.19
2019-01-14T01:25:36.531Z,100846.54
2019-01-14T01:26:13.246Z,100844.09
2019-01-14T01:26:49.706Z,100844.09
2019-01-14T01:27:25.939Z,100845.44
2019-01-14T01:28:02.941Z,100847.63
2019-01-14T01:28:39.318Z,100843.33
2019-01-14T01:29:15.814Z,100844.71
2019-01-14T01:29:52.883Z,100844.71
2019-01-14T01:30:29.297Z,100844.16
2019-01-14T01:31:06.299Z,100844.16
2019-01-14T01:31:43.259Z,100844.67
2019-01-14T01:32:19.582Z,100841.97
2019-01-14T01:32:56.393Z,100841.97
2019-01-14T01:33:33.376Z,100841.97
2019-01-14T01:34:09.783Z,100848.40
2019-01-14T01:34:46.258Z,100842.41
2019-01-14T01:35:22.814Z,100846.94
2019-01-14T01:35:59.459Z,100843.11
2019-01-14T01:36:35.971Z,100843.11
2019-01-14T01:37:12.889Z,100834.78
2019-01-14T01:37:49.109Z,100833.14
2019-01-14T01:38:26.004Z,100847.30
2019-01-14T01:39:03.734Z,100840.41
2019-01-14T01:39:40.141Z,100840.95
2019-01-14T01:40:18.918Z,100841.16
2019-01-14T01:40:55.268Z,100835.75
2019-01-14T01:41:32.005Z,100841.84
2019-01-14T01:42:08.448Z,100841.84
2019-01-14T01:42:45.320Z,100838.62
2019-01-14T01:43:22.537Z,100836.00
2019-01-14T01:43:58.792Z,100836.00
2019-01-14T01:44:35.859Z,100834.73
2019-01-14T01:45:13.002Z,100835.30
2019-01-14T01:45:49.364Z,100835.30
2019-01-14T01:46:25.668Z,100840.01
2019-01-14T01:47:01.976Z,100839.95
2019-01-14T01:47:38.344Z,100839.52
2019-01-14T01:48:14.675Z,100842.40
2019-01-14T01:48:51.524Z,100836.94
2019-01-14T01:49:28.267Z,100844.10
2019-01-14T01:50:04.741Z,100843.60
2019-01-14T01:50:41.122Z,100843.60
2019-01-14T01:51:18.017Z,100841.34
2019-01-14T01:51:54.940Z,100843.94
2019-01-14T01:52:31.238Z,100844.64
2019-01-14T01:53:07.809Z,100847.59
2019-01-14T01:53:44.683Z,100849.37
2019-01-14T01:54:22.249Z,100850.36
2019-01-14T01:54:58.552Z,100847.55
2019-01-14T01:55:34.871Z,100849.03
2019-01-14T01:56:11.758Z,100851.16
2019-01-14T01:56:48.347Z,100848.13
2019-01-14T01:57:25.628Z,100843.45
2019-01-14T01:58:02.641Z,100851.22
2019-01-14T01:58:38.793Z,100851.09
2019-01-14T01:59:15.026Z,100846.42
2019-01-14T01:59:52.129Z,100850.64
2019-01-14T02:00:28.670Z,100851.38
2019-01-14T02:01:07.169Z,100855.70
2019-01-14T02:01:44.108Z,100852.12
2019-01-14T02:02:21.127Z,100857.73
2019-01-14T02:02:57.730Z,100853.11
2019-01-14T02:03:34.737Z,100855.21
2019-01-14T02:04:11.074Z,100853.86
2019-01-14T02:04:47.797Z,100849.70
2019-01-14T02:05:24.690Z,100851.30
2019-01-14T02:06:01.786Z,100857.22
2019-01-14T02:06:39.302Z,100853.89
2019-01-14T02:07:16.337Z,100854.88
2019-01-14T02:07:52.611Z,100856.75
2019-01-14T02:08:29.327Z,100864.09
2019-01-14T02:09:06.839Z,100856.38
2019-01-14T02:09:44.496Z,100857.67
2019-01-14T02:10:25.042Z,100855.77
2019-01-14T02:11:01.394Z,100862.07
2019-01-14T02:11:38.515Z,100865.77
2019-01-14T02:12:15.372Z,100863.17
2019-01-14T02:12:51.688Z,100860.60
2019-01-14T02:13:28.376Z,100865.41
2019-01-14T02:14:05.185Z,100863.67
2019-01-14T02:14:42.079Z,100856.51
2019-01-14T02:15:18.859Z,100857.48
2019-01-14T02:15:55.876Z,100860.93
2019-01-14T02:16:33.249Z,100858.47
2019-01-14T02:17:09.787Z,100856.27
2019-01-14T02:17:48.254Z,100856.72
2019-01-14T02:18:24.635Z,100851.22
2019-01-14T02:19:01.047Z,100851.77
2019-01-14T02:19:37.961Z,100853.76
2019-01-14T02:20:15.910Z,100855.75
2019-01-14T02:20:52.797Z,100856.75
2019-01-14T02:21:29.699Z,100851.46
2019-01-14T02:22:06.705Z,100855.53
2019-01-14T02:22:43.629Z,100855.77
2019-01-14T02:23:20.140Z,100856.63
2019-01-14T02:23:56.339Z,100850.47
2019-01-14T02:24:32.697Z,100854.05
2019-01-14T02:25:09.920Z,100852.45
2019-01-14T02:25:46.177Z,100859.41
2019-01-14T02:26:22.990Z,100856.27
2019-01-14T02:26:59.319Z,100857.50
2019-01-14T02:27:36.588Z,100856.08
2019-01-14T02:28:12.981Z,100850.96
2019-01-14T02:28:49.726Z,100849.54
2019-01-14T02:29:26.331Z,100849.84
2019-01-14T02:30:02.452Z,100848.11
2019-01-14T02:30:39.520Z,100851.03
2019-01-14T02:31:16.610Z,100850.10
2019-01-14T02:31:53.761Z,100847.88
2019-01-14T02:32:30.546Z,100849.66
2019-01-14T02:33:07.291Z,100845.83
2019-01-14T02:33:43.695Z,100846.56
2019-01-14T02:34:20.441Z,100845.72
2019-01-14T02:34:57.954Z,100851.44
2019-01-14T02:35:34.776Z,100848.72
2019-01-14T02:36:11.152Z,100841.61
2019-01-14T02:36:48.855Z,100837.16
2019-01-14T02:37:25.279Z,100840.60
2019-01-14T02:38:01.900Z,100844.30
2019-01-14T02:38:39.042Z,100843.91
2019-01-14T02:39:16.549Z,100848.08
2019-01-14T02:39:52.849Z,100844.25
2019-01-14T02:40:29.908Z,100841.53
2019-01-14T02:41:06.182Z,100841.81
2019-01-14T02:41:43.366Z,100839.19
2019-01-14T02:42:19.754Z,100843.68
2019-01-14T02:42:56.621Z,100841.62
2019-01-14T02:43:33.650Z,100837.95
2019-01-14T02:44:10.690Z,100834.88
2019-01-14T02:44:47.796Z,100833.32
2019-01-14T02:45:24.098Z,100836.67
2019-01-14T02:46:04.550Z,100837.30
2019-01-14T02:46:40.866Z,100834.41
2019-01-14T02:47:17.661Z,100834.48
2019-01-14T02:47:54.109Z,100832.02
2019-01-14T02:48:31.193Z,100832.98
2019-01-14T02:49:08.162Z,100829.22
2019-01-14T02:49:44.962Z,100827.96
2019-01-14T02:50:21.666Z,100832.11
2019-01-14T02:50:57.940Z,100828.66
2019-01-14T02:51:34.347Z,100822.12
2019-01-14T02:52:11.219Z,100827.22
2019-01-14T02:52:47.445Z,100835.92
2019-01-14T02:53:23.997Z,100830.73
2019-01-14T02:54:00.991Z,100830.17
2019-01-14T02:54:38.115Z,100832.41
2019-01-14T02:55:15.215Z,100829.61
2019-01-14T02:55:51.377Z,100834.17
2019-01-14T02:56:28.229Z,100833.23
2019-01-14T02:57:04.606Z,100831.72
2019-01-14T02:57:41.295Z,100830.80
2019-01-14T02:58:18.208Z,100827.97
2019-01-14T02:58:54.652Z,100830.84
2019-01-14T02:59:31.778Z,100832.61
2019-01-14T03:00:20.567Z,100831.05
2019-01-14T03:00:58.363Z,100825.78
2019-01-14T03:01:37.365Z,100829.78
2019-01-14T03:02:14.677Z,100829.95
2019-01-14T03:02:51.681Z,100825.79
2019-01-14T03:03:29.236Z,100829.86
2019-01-14T03:04:05.563Z,100826.42
2019-01-14T03:04:42.724Z,100824.50
2019-01-14T03:05:19.164Z,100826.73
2019-01-14T03:05:55.364Z,100819.86
2019-01-14T03:06:31.906Z,100826.02
2019-01-14T03:07:08.986Z,100821.62
2019-01-14T03:07:45.337Z,100828.02
2019-01-14T03:08:24.802Z,100820.67
2019-01-14T03:09:01.946Z,100821.31
2019-01-14T03:09:38.861Z,100824.38
2019-01-14T03:10:15.230Z,100824.46
2019-01-14T03:10:53.393Z,100820.86
2019-01-14T03:11:29.680Z,100826.17
2019-01-14T03:12:05.917Z,100826.80
2019-01-14T03:12:42.790Z,100821.31
2019-01-14T03:13:19.907Z,100817.95
2019-01-14T03:13:56.247Z,100811.62
2019-01-14T03:14:34.246Z,100815.70
2019-01-14T03:15:11.105Z,100815.06
2019-01-14T03:15:47.464Z,100815.70
2019-01-14T03:16:24.007Z,100814.66
2019-01-14T03:17:01.807Z,100811.14
2019-01-14T03:17:38.913Z,100806.99
2019-01-14T03:18:15.288Z,100814.19
2019-01-14T03:18:52.528Z,100802.42
2019-01-14T03:19:29.415Z,100813.06
2019-01-14T03:20:07.626Z,100802.83
2019-01-14T03:20:44.007Z,100812.17
2019-01-14T03:21:20.956Z,100808.81
2019-01-14T03:21:57.304Z,100810.17
2019-01-14T03:22:34.038Z,100811.13
2019-01-14T03:23:11.033Z,100808.35
2019-01-14T03:23:47.913Z,100803.20
2019-01-14T03:24:24.686Z,100812.19
2019-01-14T03:25:01.693Z,100810.82
2019-01-14T03:25:38.001Z,100807.95
2019-01-14T03:26:14.392Z,100808.34
2019-01-14T03:26:51.429Z,100805.86
2019-01-14T03:27:27.801Z,100804.33
2019-01-14T03:28:04.654Z,100805.69
2019-01-14T03:28:40.814Z,100813.94
2019-01-14T03:29:17.143Z,100810.27
2019-01-14T03:29:53.405Z,100806.43
2019-01-14T03:30:29.600Z,100813.38
2019-01-14T03:31:06.810Z,100811.22
2019-01-14T03:31:43.839Z,100809.22
2019-01-14T03:32:20.763Z,100805.61
2019-01-14T03:32:57.106Z,100802.89
2019-01-14T03:33:33.776Z,100807.45
2019-01-14T03:34:10.564Z,100806.80
2019-01-14T03:34:47.532Z,100804.25
2019-01-14T03:35:24.477Z,100808.10
2019-01-14T03:36:01.276Z,100800.97
2019-01-14T03:36:37.609Z,100807.13
2019-01-14T03:37:14.727Z,100807.13
2019-01-14T03:37:51.725Z,100799.94
2019-01-14T03:38:28.590Z,100803.45
2019-01-14T03:39:06.407Z,100799.52
2019-01-14T03:39:43.221Z,100796.47
2019-01-14T03:40:20.411Z,100795.91
2019-01-14T03:40:56.798Z,100795.59
2019-01-14T03:41:33.850Z,100799.14
2019-01-14T03:42:10.815Z,100794.64
2019-01-14T03:42:47.465Z,100787.78
2019-01-14T03:43:24.714Z,100786.34
2019-01-14T03:44:01.071Z,100784.09
2019-01-14T03:44:37.727Z,100786.16
2019-01-14T03:45:14.952Z,100785.03
2019-01-14T03:45:52.737Z,100780.71
2019-01-14T03:46:29.071Z,100789.35
2019-01-14T03:47:05.356Z,100778.23
2019-01-14T03:47:42.478Z,100783.44
2019-01-14T03:48:18.661Z,100780.39
2019-01-14T03:48:56.209Z,100781.66
2019-01-14T03:49:33.118Z,100782.55
2019-01-14T03:50:12.786Z,100774.14
2019-01-14T03:50:49.023Z,100780.39
2019-01-14T03:51:25.925Z,100771.98
2019-01-14T03:52:02.833Z,100768.47
2019-01-14T03:52:39.773Z,100771.37
2019-01-14T03:53:16.129Z,100766.22
2019-01-14T03:53:52.364Z,100771.61
2019-01-14T03:54:28.815Z,100768.09
2019-01-14T03:55:06.652Z,100765.36
2019-01-14T03:55:43.675Z,100767.44
2019-01-14T03:56:20.122Z,100763.59
2019-01-14T03:56:56.858Z,100760.48
2019-01-14T03:57:33.236Z,100767.76
2019-01-14T03:58:09.625Z,100764.38
2019-01-14T03:58:45.765Z,100765.18
2019-01-14T03:59:22.602Z,100757.16
2019-01-14T03:59:59.322Z,100758.76
2019-01-14T04:00:35.982Z,100762.42
2019-01-14T04:01:13.047Z,100760.17
2019-01-14T04:01:50.068Z,100756.83
2019-01-14T04:02:26.774Z,100761.70
2019-01-14T04:03:03.403Z,100760.48
2019-01-14T04:03:39.836Z,100759.83
2019-01-14T04:04:16.853Z,100761.52
2019-01-14T04:04:53.859Z,100753.97
2019-01-14T04:05:30.214Z,100761.48
2019-01-14T04:06:06.530Z,100759.22
2019-01-14T04:06:42.851Z,100757.62
2019-01-14T04:07:19.280Z,100756.73
2019-01-14T04:08:00.151Z,100755.70
2019-01-14T04:08:36.922Z,100749.69
2019-01-14T04:09:13.922Z,100750.82
2019-01-14T04:09:50.674Z,100753.22
2019-01-14T04:10:26.992Z,100752.19
2019-01-14T04:11:04.025Z,100751.01
2019-01-14T04:11:40.345Z,100754.34
2019-01-14T04:12:17.060Z,100748.28
2019-01-14T04:12:53.358Z,100750.35
2019-01-14T04:13:29.565Z,100746.83
2019-01-14T04:14:05.834Z,100745.37
2019-01-14T04:14:42.473Z,100745.84
2019-01-14T04:15:20.799Z,100745.19
2019-01-14T04:15:57.780Z,100750.03
2019-01-14T04:16:34.034Z,100745.63
2019-01-14T04:17:10.320Z,100741.20
2019-01-14T04:17:47.078Z,100742.14
2019-01-14T04:18:24.288Z,100745.66
2019-01-14T04:19:00.767Z,100741.81
2019-01-14T04:19:37.859Z,100744.53
2019-01-14T04:20:15.780Z,100742.61
2019-01-14T04:20:52.601Z,100737.39
2019-01-14T04:21:29.027Z,100744.67
2019-01-14T04:22:05.996Z,100729.92
2019-01-14T04:22:42.445Z,100732.69
2019-01-14T04:23:18.824Z,100735.34
2019-01-14T04:23:55.928Z,100738.20
2019-01-14T04:24:32.274Z,100735.61
2019-01-14T04:25:08.968Z,100733.35
2019-01-14T04:25:46.023Z,100728.70
2019-01-14T04:26:22.305Z,100731.66
2019-01-14T04:26:59.294Z,100727.01
2019-01-14T04:27:39.590Z,100725.31
2019-01-14T04:28:16.581Z,100725.98
2019-01-14T04:28:52.757Z,100726.44
2019-01-14T04:29:29.419Z,100722.82
2019-01-14T04:30:08.557Z,100723.48
2019-01-14T04:30:44.757Z,100721.42
2019-01-14T04:31:21.608Z,100724.02
2019-01-14T04:31:58.765Z,100724.48
2019-01-14T04:32:35.784Z,100719.83
2019-01-14T04:33:11.990Z,100716.64
2019-01-14T04:33:48.888Z,100713.92
2019-01-14T04:34:26.769Z,100721.39
2019-01-14T04:35:03.322Z,100716.11
2019-01-14T04:35:39.729Z,100720.86
2019-01-14T04:36:16.334Z,100712.65
2019-01-14T04:36:52.677Z,100717.06
2019-01-14T04:37:29.640Z,100718.56
2019-01-14T04:38:06.518Z,100715.51
2019-01-14T04:38:42.866Z,100721.52
2019-01-14T04:39:19.886Z,100718.80
2019-01-14T04:39:56.496Z,100718.70
2019-01-14T04:40:32.810Z,100717.00
2019-01-14T04:41:09.799Z,100721.55
2019-01-14T04:41:47.138Z,100713.25
2019-01-14T04:42:23.498Z,100712.36
2019-01-14T04:43:00.270Z,100707.70
2019-01-14T04:43:37.094Z,100709.30
2019-01-14T04:44:13.406Z,100710.43
2019-01-14T04:44:50.146Z,100712.45
2019-01-14T04:45:26.456Z,100709.73
2019-01-14T04:46:02.816Z,100704.38
2019-01-14T04:46:39.407Z,100707.20
2019-01-14T04:47:16.447Z,100703.58
2019-01-14T04:47:52.713Z,100702.13
2019-01-14T04:48:28.885Z,100702.02
2019-01-14T04:49:05.178Z,100703.85
2019-01-14T04:49:43.436Z,100706.81
2019-01-14T04:50:22.077Z,100697.73
2019-01-14T04:50:58.415Z,100699.53
2019-01-14T04:51:34.760Z,100698.84
2019-01-14T04:52:11.419Z,100702.48
2019-01-14T04:52:48.189Z,100700.73
2019-01-14T04:53:24.445Z,100701.19
2019-01-14T04:54:00.854Z,100699.59
2019-01-14T04:54:37.656Z,100706.25
2019-01-14T04:55:13.904Z,100697.27
2019-01-14T04:55:50.125Z,100695.45
2019-01-14T04:56:26.959Z,100692.72
2019-01-14T04:57:04.138Z,100699.27
2019-01-14T04:57:40.357Z,100700.33
2019-01-14T04:58:17.113Z,100697.27
2019-01-14T04:58:54.027Z,100701.19
2019-01-14T04:59:30.827Z,100701.19
2019-01-14T05:00:15.468Z,100705.18
2019-01-14T05:00:52.408Z,100699.40
2019-01-14T05:01:29.314Z,100694.28
2019-01-14T05:02:05.893Z,100704.75
2019-01-14T05:02:42.678Z,100707.70
2019-01-14T05:03:19.089Z,100700.79
2019-01-14T05:03:55.420Z,100693.98
2019-01-14T05:04:31.859Z,100693.98
2019-01-14T05:05:08.631Z,100690.36
2019-01-14T05:05:46.034Z,100697.86
2019-01-14T05:06:23.986Z,100693.67
2019-01-14T05:07:00.963Z,100698.79
2019-01-14T05:07:37.940Z,100694.70
2019-01-14T05:08:14.238Z,100697.69
2019-01-14T05:08:51.175Z,100695.50
2019-01-14T05:09:28.024Z,100692.23
2019-01-14T05:10:04.546Z,100691.11
2019-01-14T05:10:41.655Z,100693.20
2019-01-14T05:11:18.818Z,100692.06
2019-01-14T05:11:55.872Z,100691.17
2019-01-14T05:12:32.111Z,100699.34
2019-01-14T05:13:08.293Z,100694.56
2019-01-14T05:13:44.454Z,100689.98
2019-01-14T05:14:21.494Z,100690.72
2019-01-14T05:14:57.887Z,100689.36
2019-01-14T05:15:34.306Z,100689.80
2019-01-14T05:16:11.358Z,100693.98
2019-01-14T05:16:47.678Z,100692.05
2019-01-14T05:17:24.125Z,100689.22
2019-01-14T05:18:00.967Z,100687.30
2019-01-14T05:18:37.928Z,100689.02
2019-01-14T05:19:14.577Z,100689.75
2019-01-14T05:19:51.203Z,100690.94
2019-01-14T05:20:28.829Z,100687.54
2019-01-14T05:21:05.696Z,100687.54
2019-01-14T05:21:42.256Z,100685.05
2019-01-14T05:22:18.592Z,100678.92
2019-01-14T05:22:55.331Z,100681.88
2019-01-14T05:23:32.248Z,100682.80
2019-01-14T05:24:09.306Z,100679.17
2019-01-14T05:24:45.824Z,100687.28
2019-01-14T05:25:22.821Z,100685.81
2019-01-14T05:25:59.007Z,100679.00
2019-01-14T05:26:35.295Z,100682.52
2019-01-14T05:27:12.077Z,100681.05
2019-01-14T05:27:48.231Z,100682.64
2019-01-14T05:28:24.731Z,100681.28
2019-01-14T05:29:01.617Z,100676.39
2019-01-14T05:29:37.844Z,100673.10
2019-01-14T05:30:15.500Z,100671.73
2019-01-14T05:30:52.314Z,100675.37
2019-01-14T05:31:28.476Z,100675.37
2019-01-14T05:32:05.546Z,100673.10
2019-01-14T05:32:43.290Z,100669.70
2019-01-14T05:33:19.480Z,100668.56
2019-01-14T05:33:55.802Z,100669.70
2019-01-14T05:34:32.655Z,100666.74
2019-01-14T05:35:09.361Z,100668.11
2019-01-14T05:35:46.849Z,100662.89
2019-01-14T05:36:24.531Z,100664.48
2019-01-14T05:37:01.513Z,100666.16
2019-01-14T05:37:38.764Z,100664.00
2019-01-14T05:38:15.418Z,100662.18
2019-01-14T05:38:52.603Z,100655.13
2019-01-14T05:39:29.087Z,100655.36
2019-01-14T05:40:08.232Z,100657.86
2019-01-14T05:40:44.838Z,100656.00
2019-01-14T05:41:22.058Z,100652.72
2019-01-14T05:41:58.436Z,100646.70
2019-01-14T05:42:35.581Z,100645.33
2019-01-14T05:43:12.460Z,100651.27
2019-01-14T05:43:48.750Z,100652.30
2019-01-14T05:44:25.661Z,100646.52
2019-01-14T05:45:02.335Z,100648.34
2019-01-14T05:45:38.749Z,100646.06
2019-01-14T05:46:15.551Z,100642.44
2019-01-14T05:46:52.535Z,100646.42
2019-01-14T05:47:28.916Z,100644.95
2019-01-14T05:48:05.189Z,100641.42
2019-01-14T05:48:41.591Z,100640.75
2019-01-14T05:49:18.044Z,100644.72
2019-01-14T05:49:54.210Z,100634.73
2019-01-14T05:50:31.260Z,100637.91
2019-01-14T05:51:07.943Z,100638.14
2019-01-14T05:51:44.668Z,100631.09
2019-01-14T05:52:21.692Z,100638.94
2019-01-14T05:52:59.968Z,100635.19
2019-01-14T05:53:37.256Z,100634.54
2019-01-14T05:54:13.506Z,100629.09
2019-01-14T05:54:50.118Z,100630.11
2019-01-14T05:55:26.860Z,100635.64
2019-01-14T05:56:03.651Z,100632.04
2019-01-14T05:56:40.720Z,100627.72
2019-01-14T05:57:17.313Z,100622.91
2019-01-14T05:57:53.584Z,100625.06
2019-01-14T05:58:29.847Z,100622.89
2019-01-14T05:59:06.477Z,100628.01
2019-01-14T05:59:43.039Z,100620.63
2019-01-14T06:00:35.381Z,100618.91
2019-01-14T06:01:11.681Z,100621.30
2019-01-14T06:01:47.988Z,100616.98
2019-01-14T06:02:24.529Z,100619.25
2019-01-14T06:03:01.026Z,100616.98
2019-01-14T06:03:37.445Z,100619.38
2019-01-14T06:04:14.506Z,100614.94
2019-01-14T06:04:50.924Z,100609.27
2019-01-14T06:05:27.384Z,100609.83
2019-01-14T06:06:04.144Z,100608.80
2019-01-14T06:06:40.400Z,100605.28
2019-01-14T06:07:16.562Z,100610.16
2019-01-14T06:07:53.378Z,100611.19
2019-01-14T06:08:29.610Z,100610.28
2019-01-14T06:09:08.269Z,100604.50
2019-01-14T06:09:44.630Z,100607.45
2019-01-14T06:10:21.735Z,100604.72
2019-01-14T06:10:58.251Z,100608.36
2019-01-14T06:11:35.286Z,100599.27
2019-01-14T06:12:11.572Z,100606.77
2019-01-14T06:12:47.959Z,100604.50
2019-01-14T06:13:24.643Z,100594.50
2019-01-14T06:14:00.896Z,100599.95
2019-01-14T06:14:37.534Z,100590.52
2019-01-14T06:15:14.330Z,100588.48
2019-01-14T06:15:50.753Z,100590.88
2019-01-14T06:16:27.405Z,100592.01
2019-01-14T06:17:03.773Z,100589.05
2019-01-14T06:17:40.063Z,100584.73
2019-01-14T06:18:16.425Z,100589.95
2019-01-14T06:18:53.521Z,100585.75
2019-01-14T06:19:31.342Z,100589.62
2019-01-14T06:20:09.563Z,100588.59
2019-01-14T06:20:46.320Z,100583.14
2019-01-14T06:21:23.933Z,100584.72
2019-01-14T06:22:00.162Z,100579.16
2019-01-14T06:22:37.239Z,100575.87
2019-01-14T06:23:13.626Z,100575.87
2019-01-14T06:23:49.798Z,100577.69
2019-01-14T06:24:26.557Z,100575.98
2019-01-14T06:25:03.048Z,100571.09
2019-01-14T06:25:39.673Z,100569.28
2019-01-14T06:26:16.443Z,100569.51
2019-01-14T06:26:53.122Z,100569.84
2019-01-14T06:27:29.435Z,100569.05
2019-01-14T06:28:06.184Z,100573.94
2019-01-14T06:28:45.092Z,100567.69
2019-01-14T06:29:21.735Z,100569.50
2019-01-14T06:29:58.801Z,100564.62
2019-01-14T06:30:36.030Z,100568.59
2019-01-14T06:31:12.721Z,100572.78
2019-01-14T06:31:49.019Z,100560.38
2019-01-14T06:32:25.974Z,100570.80
2019-01-14T06:33:02.213Z,100564.44
2019-01-14T06:33:39.097Z,100562.80
2019-01-14T06:34:17.242Z,100560.45
2019-01-14T06:34:54.525Z,100561.18
2019-01-14T06:35:31.090Z,100558.45
2019-01-14T06:36:07.445Z,100552.09
2019-01-14T06:36:44.065Z,100559.22
2019-01-14T06:37:20.351Z,100553.36
2019-01-14T06:37:57.176Z,100556.51
2019-01-14T06:38:33.486Z,100553.17
2019-01-14T06:39:11.920Z,100552.52
2019-01-14T06:39:48.637Z,100548.17
2019-01-14T06:40:25.655Z,100551.67
2019-01-14T06:41:02.055Z,100544.42
2019-01-14T06:41:38.392Z,100544.35
2019-01-14T06:42:15.209Z,100549.88
2019-01-14T06:42:51.833Z,100544.44
2019-01-14T06:43:28.642Z,100546.90
2019-01-14T06:44:05.194Z,100541.84
2019-01-14T06:44:42.196Z,100538.55
2019-01-14T06:45:19.216Z,100539.48
2019-01-14T06:45:55.617Z,100535.28
2019-01-14T06:46:32.148Z,100538.58
2019-01-14T06:47:08.997Z,100530.41
2019-01-14T06:47:46.088Z,100535.63
2019-01-14T06:48:22.493Z,100531.53
2019-01-14T06:48:59.668Z,100530.64
2019-01-14T06:49:36.772Z,100530.30
2019-01-14T06:50:14.512Z,100531.78
2019-01-14T06:50:50.856Z,100524.27
2019-01-14T06:51:27.643Z,100525.40
2019-01-14T06:52:03.881Z,100516.89
2019-01-14T06:52:40.712Z,100521.08
2019-01-14T06:53:17.880Z,100518.02
2019-01-14T06:53:54.115Z,100517.69
2019-01-14T06:54:30.893Z,100517.69
2019-01-14T06:55:08.061Z,100515.87
2019-01-14T06:55:44.214Z,100511.78
2019-01-14T06:56:21.049Z,100510.66
2019-01-14T06:56:58.494Z,100506.80
2019-01-14T06:57:34.963Z,100506.33
2019-01-14T06:58:11.663Z,100508.59
2019-01-14T06:58:48.030Z,100504.74
2019-01-14T06:59:24.286Z,100509.29
2019-01-14T07:00:01.006Z,100513.73
2019-01-14T07:00:37.297Z,100516.22